Craig Municipal Airport Jacksonville US
ICAO: KCRG
IATA: CRG
Category: Medium
Scheduled Services: No

Elevation: 41 ft
TransAlt. 18000 ft.

Airport Communications:
JACKSONVILLE APP:124.9
ATIS:125.4
CLNC DEL:118.35
CTAF:132.1
JACKSONVILLE DEP:118
GND:121.8
GAINESVILLE RDO:122.2
TWR:132.1
UNICOM:122.95

KCRG Zoom In..

Runways:

(A) RW 05 length 4004 ft width 100 ft
---- / hdg 51

(B) RW 14 length 4008 ft width 100 ft
---- / hdg 141

(C) RW 23 length 4004 ft width 100 ft
---- / hdg 231

(D) RW 32 length 4008 ft width 100 ft
ILS 111.70 / hdg 321

Location; KCRG
Day. 21 / Time. 22.53 Zulu
* Altimeter: 30.21
* Temperature: 14° c. 57.2°f.
* Wind from: 060° Speed 04 kn.
Dewpoint: 06° c.
Visibility: 10 Statute Miles.
Clouds: Clear (automated report).

KCRG 212253Z 06004KT 10SM CLR 14/06 A3021 RMK AO2 SLP230 T01440056


Wind From 060°
Speed 04 kn.

jpsM music video
CHECK IT OUT

jpsM - It Moves..

 
jpsmedia.com for Web Design  worldairports.se 2018   terms of use